sensor_id;sensor_type;location;lat;lon;timestamp;P1;durP1;ratioP1;P2;durP2;ratioP2
1174;SDS011;576;48.418;10.074;2023-08-20T00:00:14;3.27;;;2.63;;
1174;SDS011;576;48.418;10.074;2023-08-20T00:02:45;2.47;;;2.37;;
1174;SDS011;576;48.418;10.074;2023-08-20T00:05:19;3.47;;;3.23;;
1174;SDS011;576;48.418;10.074;2023-08-20T00:07:47;2.63;;;2.53;;
1174;SDS011;576;48.418;10.074;2023-08-20T00:10:16;3.37;;;3.17;;
1174;SDS011;576;48.418;10.074;2023-08-20T00:12:46;2.83;;;2.73;;
1174;SDS011;576;48.418;10.074;2023-08-20T00:15:14;3.57;;;3.37;;
1174;SDS011;576;48.418;10.074;2023-08-20T00:17:42;3.40;;;3.20;;
1174;SDS011;576;48.418;10.074;2023-08-20T00:20:11;3.37;;;3.17;;
1174;SDS011;576;48.418;10.074;2023-08-20T00:22:42;3.17;;;3.00;;
1174;SDS011;576;48.418;10.074;2023-08-20T00:25:12;3.37;;;3.17;;
1174;SDS011;576;48.418;10.074;2023-08-20T00:27:42;2.80;;;2.70;;
1174;SDS011;576;48.418;10.074;2023-08-20T00:30:13;2.97;;;2.80;;
1174;SDS011;576;48.418;10.074;2023-08-20T00:32:41;3.40;;;3.20;;
1174;SDS011;576;48.418;10.074;2023-08-20T00:35:10;2.70;;;2.60;;
1174;SDS011;576;48.418;10.074;2023-08-20T00:37:38;2.83;;;2.70;;
1174;SDS011;576;48.418;10.074;2023-08-20T00:40:09;3.40;;;3.20;;
1174;SDS011;576;48.418;10.074;2023-08-20T00:42:38;3.70;;;3.50;;
1174;SDS011;576;48.418;10.074;2023-08-20T00:45:07;2.90;;;2.80;;
1174;SDS011;576;48.418;10.074;2023-08-20T00:47:38;3.30;;;3.10;;
1174;SDS011;576;48.418;10.074;2023-08-20T00:50:06;3.07;;;2.90;;
1174;SDS011;576;48.418;10.074;2023-08-20T00:52:37;3.53;;;3.33;;
1174;SDS011;576;48.418;10.074;2023-08-20T00:55:07;3.40;;;3.20;;
1174;SDS011;576;48.418;10.074;2023-08-20T00:57:36;3.33;;;3.13;;
1174;SDS011;576;48.418;10.074;2023-08-20T01:00:05;3.20;;;3.00;;
1174;SDS011;576;48.418;10.074;2023-08-20T01:02:38;3.20;;;3.00;;
1174;SDS011;576;48.418;10.074;2023-08-20T01:05:10;3.70;;;3.40;;
1174;SDS011;576;48.418;10.074;2023-08-20T01:07:43;3.10;;;2.90;;
1174;SDS011;576;48.418;10.074;2023-08-20T01:10:29;3.43;;;3.23;;
1174;SDS011;576;48.418;10.074;2023-08-20T01:13:02;3.97;;;3.67;;
1174;SDS011;576;48.418;10.074;2023-08-20T01:15:31;3.20;;;3.00;;
1174;SDS011;576;48.418;10.074;2023-08-20T01:18:01;2.93;;;2.73;;
1174;SDS011;576;48.418;10.074;2023-08-20T01:20:30;3.33;;;3.13;;
1174;SDS011;576;48.418;10.074;2023-08-20T01:23:18;2.73;;;2.63;;
1174;SDS011;576;48.418;10.074;2023-08-20T01:26:12;3.30;;;3.10;;
1174;SDS011;576;48.418;10.074;2023-08-20T01:29:04;3.40;;;3.20;;
1174;SDS011;576;48.418;10.074;2023-08-20T01:31:33;3.40;;;3.20;;
1174;SDS011;576;48.418;10.074;2023-08-20T01:34:01;3.37;;;3.17;;
1174;SDS011;576;48.418;10.074;2023-08-20T01:36:30;3.83;;;3.53;;
1174;SDS011;576;48.418;10.074;2023-08-20T01:38:58;3.30;;;3.10;;
1174;SDS011;576;48.418;10.074;2023-08-20T01:41:26;3.50;;;3.30;;
1174;SDS011;576;48.418;10.074;2023-08-20T01:43:54;3.33;;;3.13;;
1174;SDS011;576;48.418;10.074;2023-08-20T01:46:24;3.67;;;3.47;;
1174;SDS011;576;48.418;10.074;2023-08-20T01:48:52;3.50;;;3.30;;
1174;SDS011;576;48.418;10.074;2023-08-20T01:51:20;4.27;;;3.97;;
1174;SDS011;576;48.418;10.074;2023-08-20T01:53:48;3.73;;;3.50;;
1174;SDS011;576;48.418;10.074;2023-08-20T01:56:16;3.40;;;3.20;;
1174;SDS011;576;48.418;10.074;2023-08-20T01:58:45;4.30;;;4.00;;
1174;SDS011;576;48.418;10.074;2023-08-20T02:01:14;3.93;;;3.63;;
1174;SDS011;576;48.418;10.074;2023-08-20T02:03:43;3.60;;;3.40;;
1174;SDS011;576;48.418;10.074;2023-08-20T02:06:11;3.10;;;2.90;;
1174;SDS011;576;48.418;10.074;2023-08-20T02:08:44;4.60;;;4.20;;
1174;SDS011;576;48.418;10.074;2023-08-20T02:11:12;4.53;;;4.13;;
1174;SDS011;576;48.418;10.074;2023-08-20T02:13:40;3.90;;;3.70;;
1174;SDS011;576;48.418;10.074;2023-08-20T02:16:08;3.67;;;3.47;;
1174;SDS011;576;48.418;10.074;2023-08-20T02:18:36;4.30;;;4.00;;
1174;SDS011;576;48.418;10.074;2023-08-20T02:21:06;4.20;;;3.90;;
1174;SDS011;576;48.418;10.074;2023-08-20T02:23:34;3.53;;;3.23;;
1174;SDS011;576;48.418;10.074;2023-08-20T02:26:05;3.27;;;3.07;;
1174;SDS011;576;48.418;10.074;2023-08-20T02:28:33;4.63;;;4.23;;
1174;SDS011;576;48.418;10.074;2023-08-20T02:31:03;4.00;;;3.80;;
1174;SDS011;576;48.418;10.074;2023-08-20T02:33:32;3.90;;;3.70;;
1174;SDS011;576;48.418;10.074;2023-08-20T02:36:00;4.47;;;4.17;;
1174;SDS011;576;48.418;10.074;2023-08-20T02:38:31;4.00;;;3.77;;
1174;SDS011;576;48.418;10.074;2023-08-20T02:40:59;4.37;;;4.07;;
1174;SDS011;576;48.418;10.074;2023-08-20T02:43:29;3.77;;;3.57;;
1174;SDS011;576;48.418;10.074;2023-08-20T02:46:00;3.70;;;3.50;;
1174;SDS011;576;48.418;10.074;2023-08-20T02:48:29;3.70;;;3.50;;
1174;SDS011;576;48.418;10.074;2023-08-20T02:50:57;3.97;;;3.77;;
1174;SDS011;576;48.418;10.074;2023-08-20T02:53:25;3.80;;;3.60;;
1174;SDS011;576;48.418;10.074;2023-08-20T02:55:54;4.10;;;3.80;;
1174;SDS011;576;48.418;10.074;2023-08-20T02:58:22;4.17;;;3.90;;
1174;SDS011;576;48.418;10.074;2023-08-20T03:00:50;3.83;;;3.63;;
1174;SDS011;576;48.418;10.074;2023-08-20T03:03:19;3.70;;;3.50;;
1174;SDS011;576;48.418;10.074;2023-08-20T03:05:48;4.37;;;4.07;;
1174;SDS011;576;48.418;10.074;2023-08-20T03:08:16;4.20;;;3.90;;
1174;SDS011;576;48.418;10.074;2023-08-20T03:10:44;4.30;;;4.10;;
1174;SDS011;576;48.418;10.074;2023-08-20T03:13:14;4.43;;;4.13;;
1174;SDS011;576;48.418;10.074;2023-08-20T03:15:42;4.30;;;4.00;;
1174;SDS011;576;48.418;10.074;2023-08-20T03:18:10;4.43;;;4.13;;
1174;SDS011;576;48.418;10.074;2023-08-20T03:20:38;4.10;;;3.90;;
1174;SDS011;576;48.418;10.074;2023-08-20T03:23:06;4.00;;;3.80;;
1174;SDS011;576;48.418;10.074;2023-08-20T03:25:35;4.43;;;4.03;;
1174;SDS011;576;48.418;10.074;2023-08-20T03:28:03;3.70;;;3.50;;
1174;SDS011;576;48.418;10.074;2023-08-20T03:30:33;4.70;;;4.40;;
1174;SDS011;576;48.418;10.074;2023-08-20T03:33:03;4.20;;;3.90;;
1174;SDS011;576;48.418;10.074;2023-08-20T03:35:34;4.20;;;3.90;;
1174;SDS011;576;48.418;10.074;2023-08-20T03:38:02;6.10;;;3.97;;
1174;SDS011;576;48.418;10.074;2023-08-20T03:40:30;4.50;;;4.20;;
1174;SDS011;576;48.418;10.074;2023-08-20T03:42:59;4.23;;;3.93;;
1174;SDS011;576;48.418;10.074;2023-08-20T03:45:28;4.00;;;3.73;;
1174;SDS011;576;48.418;10.074;2023-08-20T03:47:58;4.30;;;4.00;;
1174;SDS011;576;48.418;10.074;2023-08-20T03:50:28;4.80;;;4.50;;
1174;SDS011;576;48.418;10.074;2023-08-20T03:52:56;4.67;;;4.40;;
1174;SDS011;576;48.418;10.074;2023-08-20T03:55:25;4.80;;;4.50;;
1174;SDS011;576;48.418;10.074;2023-08-20T03:57:53;4.20;;;3.90;;
1174;SDS011;576;48.418;10.074;2023-08-20T04:00:21;4.40;;;4.20;;
1174;SDS011;576;48.418;10.074;2023-08-20T04:02:50;4.83;;;4.53;;
1174;SDS011;576;48.418;10.074;2023-08-20T04:05:19;4.67;;;4.37;;
1174;SDS011;576;48.418;10.074;2023-08-20T04:07:49;4.60;;;4.30;;
1174;SDS011;576;48.418;10.074;2023-08-20T04:10:19;4.50;;;4.30;;
1174;SDS011;576;48.418;10.074;2023-08-20T04:12:47;4.33;;;4.03;;
1174;SDS011;576;48.418;10.074;2023-08-20T04:15:16;5.00;;;4.60;;
1174;SDS011;576;48.418;10.074;2023-08-20T04:17:44;4.60;;;4.30;;
1174;SDS011;576;48.418;10.074;2023-08-20T04:20:12;4.90;;;4.50;;
1174;SDS011;576;48.418;10.074;2023-08-20T04:22:42;4.90;;;4.60;;
1174;SDS011;576;48.418;10.074;2023-08-20T04:25:10;5.20;;;4.90;;
1174;SDS011;576;48.418;10.074;2023-08-20T04:27:39;4.43;;;4.13;;
1174;SDS011;576;48.418;10.074;2023-08-20T04:30:07;4.50;;;4.20;;
1174;SDS011;576;48.418;10.074;2023-08-20T04:32:36;4.23;;;4.03;;
1174;SDS011;576;48.418;10.074;2023-08-20T04:35:05;4.20;;;3.90;;
1174;SDS011;576;48.418;10.074;2023-08-20T04:37:33;4.57;;;4.27;;
1174;SDS011;576;48.418;10.074;2023-08-20T04:40:04;4.43;;;4.23;;
1174;SDS011;576;48.418;10.074;2023-08-20T04:42:34;4.70;;;4.33;;
1174;SDS011;576;48.418;10.074;2023-08-20T04:45:03;4.50;;;4.20;;
1174;SDS011;576;48.418;10.074;2023-08-20T04:47:31;4.00;;;3.80;;
1174;SDS011;576;48.418;10.074;2023-08-20T04:50:02;4.73;;;4.43;;
1174;SDS011;576;48.418;10.074;2023-08-20T04:52:33;4.77;;;4.37;;
1174;SDS011;576;48.418;10.074;2023-08-20T04:55:02;5.07;;;4.77;;
1174;SDS011;576;48.418;10.074;2023-08-20T04:57:34;4.37;;;3.93;;
1174;SDS011;576;48.418;10.074;2023-08-20T05:00:04;4.80;;;4.50;;
1174;SDS011;576;48.418;10.074;2023-08-20T05:02:56;4.90;;;4.60;;
1174;SDS011;576;48.418;10.074;2023-08-20T05:05:25;4.50;;;4.30;;
1174;SDS011;576;48.418;10.074;2023-08-20T05:07:53;4.33;;;4.07;;
1174;SDS011;576;48.418;10.074;2023-08-20T05:10:23;5.20;;;4.90;;
1174;SDS011;576;48.418;10.074;2023-08-20T05:12:52;4.80;;;4.50;;
1174;SDS011;576;48.418;10.074;2023-08-20T05:15:20;4.70;;;4.40;;
1174;SDS011;576;48.418;10.074;2023-08-20T05:17:49;5.13;;;4.50;;
1174;SDS011;576;48.418;10.074;2023-08-20T05:20:18;5.10;;;4.80;;
1174;SDS011;576;48.418;10.074;2023-08-20T05:22:46;4.93;;;4.53;;
1174;SDS011;576;48.418;10.074;2023-08-20T05:25:14;4.70;;;4.40;;
1174;SDS011;576;48.418;10.074;2023-08-20T05:27:44;5.17;;;4.80;;
1174;SDS011;576;48.418;10.074;2023-08-20T05:30:12;5.80;;;5.40;;
1174;SDS011;576;48.418;10.074;2023-08-20T05:32:40;5.23;;;4.93;;
1174;SDS011;576;48.418;10.074;2023-08-20T05:35:09;5.63;;;5.17;;
1174;SDS011;576;48.418;10.074;2023-08-20T05:37:39;5.27;;;4.97;;
1174;SDS011;576;48.418;10.074;2023-08-20T05:40:08;5.43;;;5.03;;
1174;SDS011;576;48.418;10.074;2023-08-20T05:42:37;4.90;;;4.60;;
1174;SDS011;576;48.418;10.074;2023-08-20T05:45:08;5.10;;;4.80;;
1174;SDS011;576;48.418;10.074;2023-08-20T05:47:37;5.87;;;5.37;;
1174;SDS011;576;48.418;10.074;2023-08-20T05:50:07;5.20;;;4.90;;
1174;SDS011;576;48.418;10.074;2023-08-20T05:52:35;5.43;;;5.03;;
1174;SDS011;576;48.418;10.074;2023-08-20T05:55:04;5.70;;;5.30;;
1174;SDS011;576;48.418;10.074;2023-08-20T05:57:33;4.93;;;4.63;;
1174;SDS011;576;48.418;10.074;2023-08-20T06:00:03;4.70;;;4.50;;
1174;SDS011;576;48.418;10.074;2023-08-20T06:02:39;5.20;;;4.83;;
1174;SDS011;576;48.418;10.074;2023-08-20T06:05:09;5.27;;;4.97;;
1174;SDS011;576;48.418;10.074;2023-08-20T06:07:39;5.53;;;5.13;;
1174;SDS011;576;48.418;10.074;2023-08-20T06:10:08;4.87;;;4.57;;
1174;SDS011;576;48.418;10.074;2023-08-20T06:12:38;5.47;;;5.07;;
1174;SDS011;576;48.418;10.074;2023-08-20T06:15:06;5.60;;;5.30;;
1174;SDS011;576;48.418;10.074;2023-08-20T06:17:35;4.93;;;4.63;;
1174;SDS011;576;48.418;10.074;2023-08-20T06:20:06;5.60;;;5.20;;
1174;SDS011;576;48.418;10.074;2023-08-20T06:22:35;5.37;;;5.07;;
1174;SDS011;576;48.418;10.074;2023-08-20T06:25:03;4.63;;;4.33;;
1174;SDS011;576;48.418;10.074;2023-08-20T06:27:32;5.53;;;5.13;;
1174;SDS011;576;48.418;10.074;2023-08-20T06:30:02;4.70;;;4.40;;
1174;SDS011;576;48.418;10.074;2023-08-20T06:32:32;5.47;;;5.17;;
1174;SDS011;576;48.418;10.074;2023-08-20T06:35:00;5.47;;;5.10;;
1174;SDS011;576;48.418;10.074;2023-08-20T06:37:30;5.40;;;5.10;;
1174;SDS011;576;48.418;10.074;2023-08-20T06:39:58;5.40;;;5.10;;
1174;SDS011;576;48.418;10.074;2023-08-20T06:42:27;5.17;;;4.87;;
1174;SDS011;576;48.418;10.074;2023-08-20T06:44:55;5.93;;;5.50;;
1174;SDS011;576;48.418;10.074;2023-08-20T06:47:23;5.80;;;5.37;;
1174;SDS011;576;48.418;10.074;2023-08-20T06:49:51;5.03;;;4.73;;
1174;SDS011;576;48.418;10.074;2023-08-20T06:52:19;5.10;;;4.80;;
1174;SDS011;576;48.418;10.074;2023-08-20T06:54:49;5.90;;;5.50;;
1174;SDS011;576;48.418;10.074;2023-08-20T06:57:17;5.60;;;5.20;;
1174;SDS011;576;48.418;10.074;2023-08-20T06:59:45;4.67;;;4.37;;
1174;SDS011;576;48.418;10.074;2023-08-20T07:02:13;6.10;;;5.70;;
1174;SDS011;576;48.418;10.074;2023-08-20T07:04:41;5.57;;;5.17;;
1174;SDS011;576;48.418;10.074;2023-08-20T07:07:10;4.73;;;4.43;;
1174;SDS011;576;48.418;10.074;2023-08-20T07:09:41;5.50;;;5.00;;
1174;SDS011;576;48.418;10.074;2023-08-20T07:12:10;5.60;;;5.20;;
1174;SDS011;576;48.418;10.074;2023-08-20T07:14:38;5.23;;;4.87;;
1174;SDS011;576;48.418;10.074;2023-08-20T07:17:06;5.63;;;5.33;;
1174;SDS011;576;48.418;10.074;2023-08-20T07:19:36;5.60;;;5.20;;
1174;SDS011;576;48.418;10.074;2023-08-20T07:22:04;5.47;;;5.17;;
1174;SDS011;576;48.418;10.074;2023-08-20T07:24:32;5.43;;;5.13;;
1174;SDS011;576;48.418;10.074;2023-08-20T07:27:01;6.40;;;6.00;;
1174;SDS011;576;48.418;10.074;2023-08-20T07:29:38;5.77;;;5.37;;
1174;SDS011;576;48.418;10.074;2023-08-20T07:32:07;5.70;;;5.30;;
1174;SDS011;576;48.418;10.074;2023-08-20T07:34:35;5.60;;;5.20;;
1174;SDS011;576;48.418;10.074;2023-08-20T07:37:03;5.17;;;4.83;;
1174;SDS011;576;48.418;10.074;2023-08-20T07:39:32;5.33;;;5.03;;
1174;SDS011;576;48.418;10.074;2023-08-20T07:42:01;5.43;;;5.03;;
1174;SDS011;576;48.418;10.074;2023-08-20T07:44:29;4.83;;;4.50;;
1174;SDS011;576;48.418;10.074;2023-08-20T07:46:59;5.20;;;4.90;;
1174;SDS011;576;48.418;10.074;2023-08-20T07:49:27;5.40;;;5.10;;
1174;SDS011;576;48.418;10.074;2023-08-20T07:51:55;4.70;;;4.40;;
1174;SDS011;576;48.418;10.074;2023-08-20T07:54:23;5.07;;;4.77;;
1174;SDS011;576;48.418;10.074;2023-08-20T07:56:51;5.13;;;4.80;;
1174;SDS011;576;48.418;10.074;2023-08-20T07:59:19;5.10;;;4.80;;
1174;SDS011;576;48.418;10.074;2023-08-20T08:01:49;5.57;;;5.27;;
1174;SDS011;576;48.418;10.074;2023-08-20T08:04:18;5.37;;;5.07;;
1174;SDS011;576;48.418;10.074;2023-08-20T08:06:47;6.13;;;5.73;;
1174;SDS011;576;48.418;10.074;2023-08-20T08:09:17;5.50;;;5.13;;
1174;SDS011;576;48.418;10.074;2023-08-20T08:11:48;5.20;;;4.80;;
1174;SDS011;576;48.418;10.074;2023-08-20T08:14:16;5.47;;;5.13;;
1174;SDS011;576;48.418;10.074;2023-08-20T08:16:45;5.13;;;4.83;;
1174;SDS011;576;48.418;10.074;2023-08-20T08:19:13;5.80;;;5.40;;
1174;SDS011;576;48.418;10.074;2023-08-20T08:21:43;4.90;;;4.60;;
1174;SDS011;576;48.418;10.074;2023-08-20T08:24:12;5.30;;;5.00;;
1174;SDS011;576;48.418;10.074;2023-08-20T08:26:41;4.73;;;4.43;;
1174;SDS011;576;48.418;10.074;2023-08-20T08:29:09;4.67;;;4.37;;
1174;SDS011;576;48.418;10.074;2023-08-20T08:31:38;5.27;;;4.97;;
1174;SDS011;576;48.418;10.074;2023-08-20T08:34:06;5.53;;;5.13;;
1174;SDS011;576;48.418;10.074;2023-08-20T08:36:34;5.10;;;4.80;;
1174;SDS011;576;48.418;10.074;2023-08-20T08:39:05;4.93;;;4.63;;
1174;SDS011;576;48.418;10.074;2023-08-20T08:41:34;5.57;;;5.17;;
1174;SDS011;576;48.418;10.074;2023-08-20T08:44:06;4.90;;;4.60;;
1174;SDS011;576;48.418;10.074;2023-08-20T08:46:36;5.30;;;5.00;;
1174;SDS011;576;48.418;10.074;2023-08-20T08:49:06;5.63;;;5.23;;
1174;SDS011;576;48.418;10.074;2023-08-20T08:51:36;4.77;;;4.47;;
1174;SDS011;576;48.418;10.074;2023-08-20T08:54:06;5.57;;;5.17;;
1174;SDS011;576;48.418;10.074;2023-08-20T08:56:36;5.30;;;5.00;;
1174;SDS011;576;48.418;10.074;2023-08-20T08:59:04;5.10;;;4.80;;
1174;SDS011;576;48.418;10.074;2023-08-20T09:01:36;5.60;;;5.20;;
1174;SDS011;576;48.418;10.074;2023-08-20T09:04:06;5.30;;;4.90;;
1174;SDS011;576;48.418;10.074;2023-08-20T09:06:44;5.50;;;5.13;;
1174;SDS011;576;48.418;10.074;2023-08-20T09:09:14;5.83;;;5.43;;
1174;SDS011;576;48.418;10.074;2023-08-20T09:11:43;5.03;;;4.73;;
1174;SDS011;576;48.418;10.074;2023-08-20T09:14:20;5.30;;;4.90;;
1174;SDS011;576;48.418;10.074;2023-08-20T09:16:53;5.60;;;5.20;;
1174;SDS011;576;48.418;10.074;2023-08-20T09:19:23;4.70;;;4.40;;
1174;SDS011;576;48.418;10.074;2023-08-20T09:21:52;4.73;;;4.43;;
1174;SDS011;576;48.418;10.074;2023-08-20T09:24:32;4.87;;;4.57;;
1174;SDS011;576;48.418;10.074;2023-08-20T09:27:03;5.57;;;5.27;;
1174;SDS011;576;48.418;10.074;2023-08-20T09:29:32;5.60;;;5.20;;
1174;SDS011;576;48.418;10.074;2023-08-20T09:32:01;5.70;;;5.37;;
1174;SDS011;576;48.418;10.074;2023-08-20T09:34:36;5.17;;;4.87;;
1174;SDS011;576;48.418;10.074;2023-08-20T09:37:09;4.73;;;4.43;;
1174;SDS011;576;48.418;10.074;2023-08-20T09:39:39;4.83;;;4.53;;
1174;SDS011;576;48.418;10.074;2023-08-20T09:42:08;4.43;;;4.10;;
1174;SDS011;576;48.418;10.074;2023-08-20T09:44:38;4.90;;;4.60;;
1174;SDS011;576;48.418;10.074;2023-08-20T09:47:07;4.57;;;4.27;;
1174;SDS011;576;48.418;10.074;2023-08-20T09:49:36;4.80;;;4.50;;
1174;SDS011;576;48.418;10.074;2023-08-20T09:52:06;5.57;;;5.17;;
1174;SDS011;576;48.418;10.074;2023-08-20T09:54:50;4.90;;;4.60;;
1174;SDS011;576;48.418;10.074;2023-08-20T09:57:26;4.80;;;4.50;;
1174;SDS011;576;48.418;10.074;2023-08-20T10:00:00;4.80;;;4.50;;
1174;SDS011;576;48.418;10.074;2023-08-20T10:02:39;4.70;;;4.40;;
1174;SDS011;576;48.418;10.074;2023-08-20T10:05:08;5.50;;;5.10;;
1174;SDS011;576;48.418;10.074;2023-08-20T10:07:38;4.80;;;4.50;;
1174;SDS011;576;48.418;10.074;2023-08-20T10:10:08;4.80;;;4.50;;
1174;SDS011;576;48.418;10.074;2023-08-20T10:12:38;4.60;;;4.30;;
1174;SDS011;576;48.418;10.074;2023-08-20T10:15:08;4.50;;;4.20;;
1174;SDS011;576;48.418;10.074;2023-08-20T10:17:38;4.80;;;4.50;;
1174;SDS011;576;48.418;10.074;2023-08-20T10:20:08;4.50;;;4.20;;
1174;SDS011;576;48.418;10.074;2023-08-20T10:22:38;4.87;;;4.57;;
1174;SDS011;576;48.418;10.074;2023-08-20T10:25:08;4.37;;;4.17;;
1174;SDS011;576;48.418;10.074;2023-08-20T10:27:38;5.07;;;4.77;;
1174;SDS011;576;48.418;10.074;2023-08-20T10:30:07;4.00;;;3.80;;
1174;SDS011;576;48.418;10.074;2023-08-20T10:32:45;4.00;;;3.80;;
1174;SDS011;576;48.418;10.074;2023-08-20T10:35:16;4.93;;;4.53;;
1174;SDS011;576;48.418;10.074;2023-08-20T10:38:00;4.60;;;4.30;;
1174;SDS011;576;48.418;10.074;2023-08-20T10:43:29;4.53;;;4.23;;
1174;SDS011;576;48.418;10.074;2023-08-20T10:46:04;4.40;;;4.10;;
1174;SDS011;576;48.418;10.074;2023-08-20T10:48:40;4.10;;;3.90;;
1174;SDS011;576;48.418;10.074;2023-08-20T10:51:09;4.57;;;4.37;;
1174;SDS011;576;48.418;10.074;2023-08-20T10:53:39;4.40;;;4.00;;
1174;SDS011;576;48.418;10.074;2023-08-20T10:56:13;5.27;;;4.93;;
1174;SDS011;576;48.418;10.074;2023-08-20T10:58:43;5.50;;;5.17;;
1174;SDS011;576;48.418;10.074;2023-08-20T11:01:13;4.73;;;4.43;;
1174;SDS011;576;48.418;10.074;2023-08-20T11:03:51;4.27;;;4.07;;
1174;SDS011;576;48.418;10.074;2023-08-20T11:06:19;4.27;;;4.07;;
1174;SDS011;576;48.418;10.074;2023-08-20T11:08:47;4.60;;;4.30;;
1174;SDS011;576;48.418;10.074;2023-08-20T11:11:17;3.80;;;3.60;;
1174;SDS011;576;48.418;10.074;2023-08-20T11:13:48;4.70;;;4.40;;
1174;SDS011;576;48.418;10.074;2023-08-20T11:16:16;4.63;;;4.33;;
1174;SDS011;576;48.418;10.074;2023-08-20T11:18:46;4.27;;;3.97;;
1174;SDS011;576;48.418;10.074;2023-08-20T11:21:15;3.73;;;3.53;;
1174;SDS011;576;48.418;10.074;2023-08-20T11:23:43;4.23;;;3.97;;
1174;SDS011;576;48.418;10.074;2023-08-20T11:26:14;4.63;;;4.33;;
1174;SDS011;576;48.418;10.074;2023-08-20T11:28:46;4.07;;;3.87;;
1174;SDS011;576;48.418;10.074;2023-08-20T11:31:14;4.93;;;4.63;;
1174;SDS011;576;48.418;10.074;2023-08-20T11:33:42;3.97;;;3.77;;
1174;SDS011;576;48.418;10.074;2023-08-20T11:36:11;4.30;;;4.10;;
1174;SDS011;576;48.418;10.074;2023-08-20T11:38:39;3.90;;;3.70;;
1174;SDS011;576;48.418;10.074;2023-08-20T11:41:07;4.00;;;3.80;;
1174;SDS011;576;48.418;10.074;2023-08-20T11:43:36;3.60;;;3.37;;
1174;SDS011;576;48.418;10.074;2023-08-20T11:46:05;4.53;;;4.23;;
1174;SDS011;576;48.418;10.074;2023-08-20T11:51:26;4.60;;;4.30;;
1174;SDS011;576;48.418;10.074;2023-08-20T11:53:55;4.00;;;3.80;;
1174;SDS011;576;48.418;10.074;2023-08-20T11:56:23;4.10;;;3.90;;
1174;SDS011;576;48.418;10.074;2023-08-20T11:58:51;4.50;;;4.20;;
1174;SDS011;576;48.418;10.074;2023-08-20T12:01:22;4.47;;;4.17;;
1174;SDS011;576;48.418;10.074;2023-08-20T12:03:51;3.83;;;3.63;;
1174;SDS011;576;48.418;10.074;2023-08-20T12:06:20;3.53;;;3.33;;
1174;SDS011;576;48.418;10.074;2023-08-20T12:08:50;4.30;;;4.10;;
1174;SDS011;576;48.418;10.074;2023-08-20T12:11:18;4.13;;;3.93;;
1174;SDS011;576;48.418;10.074;2023-08-20T12:13:51;4.10;;;3.80;;
1174;SDS011;576;48.418;10.074;2023-08-20T12:16:22;4.10;;;3.90;;
1174;SDS011;576;48.418;10.074;2023-08-20T12:18:51;3.93;;;3.73;;
1174;SDS011;576;48.418;10.074;2023-08-20T12:21:20;3.93;;;3.70;;
1174;SDS011;576;48.418;10.074;2023-08-20T12:23:48;3.67;;;3.37;;
1174;SDS011;576;48.418;10.074;2023-08-20T12:26:16;4.20;;;4.00;;
1174;SDS011;576;48.418;10.074;2023-08-20T12:28:44;3.87;;;3.67;;
1174;SDS011;576;48.418;10.074;2023-08-20T12:31:12;4.23;;;4.03;;
1174;SDS011;576;48.418;10.074;2023-08-20T12:33:42;4.20;;;3.90;;
1174;SDS011;576;48.418;10.074;2023-08-20T12:36:10;4.50;;;4.20;;
1174;SDS011;576;48.418;10.074;2023-08-20T12:38:39;3.37;;;3.17;;
1174;SDS011;576;48.418;10.074;2023-08-20T12:41:08;3.67;;;3.47;;
1174;SDS011;576;48.418;10.074;2023-08-20T12:43:36;3.40;;;3.20;;
1174;SDS011;576;48.418;10.074;2023-08-20T12:46:04;4.43;;;4.13;;
1174;SDS011;576;48.418;10.074;2023-08-20T12:48:33;3.60;;;3.40;;
1174;SDS011;576;48.418;10.074;2023-08-20T12:51:02;3.60;;;3.40;;
1174;SDS011;576;48.418;10.074;2023-08-20T12:53:31;3.77;;;3.57;;
1174;SDS011;576;48.418;10.074;2023-08-20T12:55:59;3.47;;;3.27;;
1174;SDS011;576;48.418;10.074;2023-08-20T12:58:28;3.43;;;3.23;;
1174;SDS011;576;48.418;10.074;2023-08-20T13:00:56;3.60;;;3.40;;
1174;SDS011;576;48.418;10.074;2023-08-20T13:03:24;3.83;;;3.63;;
1174;SDS011;576;48.418;10.074;2023-08-20T13:05:54;3.63;;;3.43;;
1174;SDS011;576;48.418;10.074;2023-08-20T13:08:25;3.37;;;3.17;;
1174;SDS011;576;48.418;10.074;2023-08-20T13:10:54;3.70;;;3.50;;
1174;SDS011;576;48.418;10.074;2023-08-20T13:13:24;3.37;;;3.17;;
1174;SDS011;576;48.418;10.074;2023-08-20T13:15:53;3.60;;;3.40;;
1174;SDS011;576;48.418;10.074;2023-08-20T13:18:22;3.57;;;3.37;;
1174;SDS011;576;48.418;10.074;2023-08-20T13:20:52;3.40;;;3.20;;
1174;SDS011;576;48.418;10.074;2023-08-20T13:23:20;3.90;;;3.70;;
1174;SDS011;576;48.418;10.074;2023-08-20T13:25:49;3.60;;;3.40;;
1174;SDS011;576;48.418;10.074;2023-08-20T13:28:18;3.47;;;3.27;;
1174;SDS011;576;48.418;10.074;2023-08-20T13:30:46;3.70;;;3.50;;
1174;SDS011;576;48.418;10.074;2023-08-20T13:33:14;3.30;;;3.10;;
1174;SDS011;576;48.418;10.074;2023-08-20T13:35:42;3.50;;;3.30;;
1174;SDS011;576;48.418;10.074;2023-08-20T13:38:11;3.23;;;3.10;;
1174;SDS011;576;48.418;10.074;2023-08-20T13:40:39;3.10;;;2.90;;
1174;SDS011;576;48.418;10.074;2023-08-20T13:43:09;3.90;;;3.60;;
1174;SDS011;576;48.418;10.074;2023-08-20T13:45:37;3.27;;;3.07;;
1174;SDS011;576;48.418;10.074;2023-08-20T13:48:06;3.50;;;3.30;;
1174;SDS011;576;48.418;10.074;2023-08-20T13:50:35;3.07;;;2.93;;
1174;SDS011;576;48.418;10.074;2023-08-20T13:53:03;4.03;;;3.83;;
1174;SDS011;576;48.418;10.074;2023-08-20T13:55:31;3.43;;;3.23;;
1174;SDS011;576;48.418;10.074;2023-08-20T13:57:59;3.57;;;3.37;;
1174;SDS011;576;48.418;10.074;2023-08-20T14:00:29;3.13;;;2.93;;
1174;SDS011;576;48.418;10.074;2023-08-20T14:02:57;3.30;;;3.13;;
1174;SDS011;576;48.418;10.074;2023-08-20T14:05:25;3.40;;;3.20;;
1174;SDS011;576;48.418;10.074;2023-08-20T14:07:55;2.80;;;2.60;;
1174;SDS011;576;48.418;10.074;2023-08-20T14:10:24;3.20;;;3.00;;
1174;SDS011;576;48.418;10.074;2023-08-20T14:12:52;3.40;;;3.20;;
1174;SDS011;576;48.418;10.074;2023-08-20T14:15:20;3.27;;;3.10;;
1174;SDS011;576;48.418;10.074;2023-08-20T14:17:50;3.57;;;3.37;;
1174;SDS011;576;48.418;10.074;2023-08-20T14:20:18;4.00;;;3.70;;
1174;SDS011;576;48.418;10.074;2023-08-20T14:22:46;3.50;;;3.30;;
1174;SDS011;576;48.418;10.074;2023-08-20T14:25:15;3.60;;;3.30;;
1174;SDS011;576;48.418;10.074;2023-08-20T14:27:43;3.20;;;3.03;;
1174;SDS011;576;48.418;10.074;2023-08-20T14:30:11;3.37;;;3.17;;
1174;SDS011;576;48.418;10.074;2023-08-20T14:32:39;3.93;;;3.73;;
1174;SDS011;576;48.418;10.074;2023-08-20T14:35:10;3.40;;;3.20;;
1174;SDS011;576;48.418;10.074;2023-08-20T14:37:39;3.37;;;3.17;;
1174;SDS011;576;48.418;10.074;2023-08-20T14:40:07;3.33;;;3.13;;
1174;SDS011;576;48.418;10.074;2023-08-20T14:42:38;2.73;;;2.63;;
1174;SDS011;576;48.418;10.074;2023-08-20T14:45:08;2.97;;;2.77;;
1174;SDS011;576;48.418;10.074;2023-08-20T14:47:36;3.10;;;3.00;;
1174;SDS011;576;48.418;10.074;2023-08-20T14:50:05;3.17;;;2.97;;
1174;SDS011;576;48.418;10.074;2023-08-20T14:52:35;3.43;;;3.23;;
1174;SDS011;576;48.418;10.074;2023-08-20T14:55:04;2.90;;;2.80;;
1174;SDS011;576;48.418;10.074;2023-08-20T14:57:35;2.60;;;2.50;;
1174;SDS011;576;48.418;10.074;2023-08-20T15:00:17;3.70;;;3.50;;
1174;SDS011;576;48.418;10.074;2023-08-20T15:02:45;3.20;;;3.00;;
1174;SDS011;576;48.418;10.074;2023-08-20T15:05:13;3.30;;;3.20;;
1174;SDS011;576;48.418;10.074;2023-08-20T15:07:43;3.33;;;3.13;;
1174;SDS011;576;48.418;10.074;2023-08-20T15:10:11;2.57;;;2.47;;
1174;SDS011;576;48.418;10.074;2023-08-20T15:12:39;3.13;;;2.93;;
1174;SDS011;576;48.418;10.074;2023-08-20T15:15:08;2.97;;;2.80;;
1174;SDS011;576;48.418;10.074;2023-08-20T15:17:36;3.30;;;3.10;;
1174;SDS011;576;48.418;10.074;2023-08-20T15:20:06;2.97;;;2.77;;
1174;SDS011;576;48.418;10.074;2023-08-20T15:22:37;2.80;;;2.70;;
1174;SDS011;576;48.418;10.074;2023-08-20T15:25:08;2.97;;;2.87;;
1174;SDS011;576;48.418;10.074;2023-08-20T15:27:37;2.93;;;2.83;;
1174;SDS011;576;48.418;10.074;2023-08-20T15:30:06;3.50;;;3.30;;
1174;SDS011;576;48.418;10.074;2023-08-20T15:32:35;2.67;;;2.57;;
1174;SDS011;576;48.418;10.074;2023-08-20T15:35:03;3.13;;;2.93;;